createdAt,value
2023-03-31T00:00:58.230Z,4.40
2023-03-31T00:03:26.598Z,4.22
2023-03-31T00:05:58.793Z,5.85
2023-03-31T00:08:30.866Z,4.43
2023-03-31T00:11:01.367Z,4.80
2023-03-31T00:13:30.599Z,5.78
2023-03-31T00:15:59.510Z,4.85
2023-03-31T00:18:27.938Z,4.40
2023-03-31T00:21:07.176Z,4.45
2023-03-31T00:23:35.646Z,4.60
2023-03-31T00:26:03.870Z,5.30
2023-03-31T00:28:31.985Z,4.05
2023-03-31T00:31:02.385Z,4.45
2023-03-31T00:33:30.803Z,4.53
2023-03-31T00:36:06.466Z,4.43
2023-03-31T00:38:35.216Z,4.60
2023-03-31T00:41:04.222Z,4.30
2023-03-31T00:43:34.459Z,3.85
2023-03-31T00:46:08.837Z,4.80
2023-03-31T00:48:39.325Z,3.95
2023-03-31T00:51:09.129Z,4.32
2023-03-31T00:53:38.719Z,4.70
2023-03-31T00:56:10.544Z,4.75
2023-03-31T00:58:43.892Z,4.65
2023-03-31T01:01:17.339Z,5.78
2023-03-31T01:03:46.913Z,5.00
2023-03-31T01:06:19.957Z,5.32
2023-03-31T01:08:51.244Z,4.93
2023-03-31T01:11:22.130Z,4.60
2023-03-31T01:13:52.747Z,4.07
2023-03-31T01:16:20.724Z,5.38
2023-03-31T01:18:49.846Z,5.13
2023-03-31T01:22:05.616Z,5.28
2023-03-31T01:25:01.783Z,5.13
2023-03-31T01:27:54.172Z,5.30
2023-03-31T01:30:42.781Z,5.15
2023-03-31T01:33:35.756Z,4.53
2023-03-31T01:36:27.791Z,5.63
2023-03-31T01:39:33.951Z,4.18
2023-03-31T01:42:11.307Z,5.20
2023-03-31T01:44:46.408Z,5.00
2023-03-31T01:47:23.158Z,5.35
2023-03-31T01:49:58.626Z,5.22
2023-03-31T01:52:33.790Z,5.00
2023-03-31T01:55:09.057Z,4.97
2023-03-31T01:57:42.338Z,4.63
2023-03-31T02:00:13.596Z,5.10
2023-03-31T02:02:47.455Z,5.10
2023-03-31T02:07:52.906Z,4.80
2023-03-31T02:10:22.916Z,4.72
2023-03-31T02:12:54.846Z,5.35
2023-03-31T02:15:27.730Z,5.13
2023-03-31T02:18:00.150Z,5.50
2023-03-31T02:20:32.658Z,4.55
2023-03-31T02:23:01.176Z,5.47
2023-03-31T02:25:37.316Z,5.78
2023-03-31T02:28:11.231Z,3.88
2023-03-31T02:30:47.187Z,5.28
2023-03-31T02:33:16.704Z,5.15
2023-03-31T02:35:44.733Z,5.20
2023-03-31T02:38:12.783Z,4.57
2023-03-31T02:40:41.995Z,5.68
2023-03-31T02:43:11.909Z,5.28
2023-03-31T02:45:45.250Z,4.60
2023-03-31T02:48:18.854Z,5.22
2023-03-31T02:51:16.587Z,5.60
2023-03-31T02:53:58.479Z,4.90
2023-03-31T02:56:41.898Z,4.47
2023-03-31T02:59:22.058Z,5.00
2023-03-31T03:02:02.559Z,5.82
2023-03-31T03:04:49.754Z,4.72
2023-03-31T03:07:26.826Z,5.03
2023-03-31T03:10:03.621Z,5.32
2023-03-31T03:12:39.189Z,4.15
2023-03-31T03:15:12.075Z,4.78
2023-03-31T03:17:43.672Z,4.43
2023-03-31T03:20:13.968Z,4.40
2023-03-31T03:22:42.225Z,4.78
2023-03-31T03:25:12.848Z,4.88
2023-03-31T03:27:41.661Z,4.53
2023-03-31T03:30:13.265Z,5.07
2023-03-31T03:32:41.513Z,4.55
2023-03-31T03:35:10.532Z,4.28
2023-03-31T03:37:38.512Z,4.43
2023-03-31T03:40:08.300Z,4.05
2023-03-31T03:42:36.725Z,3.63
2023-03-31T03:45:04.972Z,4.28
2023-03-31T03:47:34.361Z,4.60
2023-03-31T03:50:02.304Z,4.38
2023-03-31T03:52:30.350Z,4.93
2023-03-31T03:54:58.270Z,3.85
2023-03-31T03:57:26.469Z,4.50
2023-03-31T03:59:54.523Z,4.05
2023-03-31T04:02:23.631Z,3.78
2023-03-31T04:04:54.491Z,3.70
2023-03-31T04:07:22.716Z,4.05
2023-03-31T04:09:50.875Z,3.92
2023-03-31T04:12:18.888Z,3.05
2023-03-31T04:14:46.863Z,3.70
2023-03-31T04:17:16.002Z,3.88
2023-03-31T04:19:44.118Z,4.47
2023-03-31T04:22:15.599Z,3.67
2023-03-31T04:24:46.981Z,3.45
2023-03-31T04:27:17.468Z,3.47
2023-03-31T04:29:55.024Z,4.15
2023-03-31T04:32:23.234Z,3.45
2023-03-31T04:34:51.761Z,4.25
2023-03-31T04:37:21.082Z,3.58
2023-03-31T04:39:50.713Z,4.38
2023-03-31T04:42:18.674Z,3.28
2023-03-31T04:44:46.529Z,3.63
2023-03-31T04:47:14.507Z,4.25
2023-03-31T04:49:42.400Z,4.82
2023-03-31T04:52:10.392Z,4.50
2023-03-31T04:54:39.711Z,7.00
2023-03-31T04:57:07.700Z,6.22
2023-03-31T04:59:35.618Z,5.30
2023-03-31T05:02:03.579Z,5.80
2023-03-31T05:04:31.600Z,5.50
2023-03-31T05:06:59.818Z,6.60
2023-03-31T05:09:27.707Z,6.13
2023-03-31T05:11:58.155Z,5.25
2023-03-31T05:14:26.277Z,6.78
2023-03-31T05:16:54.326Z,6.32
2023-03-31T05:19:22.242Z,6.47
2023-03-31T05:21:50.332Z,6.55
2023-03-31T05:24:18.886Z,5.80
2023-03-31T05:26:52.532Z,7.18
2023-03-31T05:29:22.020Z,5.95
2023-03-31T05:31:50.105Z,4.97
2023-03-31T05:34:20.679Z,4.55
2023-03-31T05:36:50.603Z,4.30
2023-03-31T05:39:18.766Z,5.38
2023-03-31T05:41:46.666Z,5.28
2023-03-31T05:44:14.802Z,4.95
2023-03-31T05:46:44.393Z,5.63
2023-03-31T05:49:12.592Z,3.97
2023-03-31T05:51:40.554Z,4.60
2023-03-31T05:54:08.895Z,5.18
2023-03-31T05:56:36.971Z,4.72
2023-03-31T05:59:05.451Z,3.60
2023-03-31T06:01:33.897Z,4.35
2023-03-31T06:04:03.357Z,4.93
2023-03-31T06:06:34.030Z,4.70
2023-03-31T06:09:03.428Z,4.28
2023-03-31T06:11:31.596Z,4.97
2023-03-31T06:13:59.587Z,4.63
2023-03-31T06:16:29.077Z,4.63
2023-03-31T06:18:57.211Z,3.67
2023-03-31T06:21:26.666Z,2.28
2023-03-31T06:23:56.212Z,1.50
2023-03-31T06:26:24.143Z,2.28
2023-03-31T06:28:52.122Z,1.85
2023-03-31T06:31:21.689Z,1.50
2023-03-31T06:33:50.721Z,1.75
2023-03-31T06:36:20.397Z,1.60
2023-03-31T06:38:50.636Z,1.90
2023-03-31T06:41:20.775Z,1.95
2023-03-31T06:43:48.848Z,1.77
2023-03-31T06:46:17.569Z,2.10
2023-03-31T06:48:46.118Z,1.80
2023-03-31T06:51:14.712Z,2.08
2023-03-31T06:53:42.747Z,2.05
2023-03-31T06:56:12.260Z,1.67
2023-03-31T06:58:40.180Z,1.63
2023-03-31T07:01:08.549Z,1.42
2023-03-31T07:03:36.952Z,1.80
2023-03-31T07:06:05.236Z,1.75
2023-03-31T07:08:33.192Z,1.42
2023-03-31T07:11:03.829Z,1.40
2023-03-31T07:13:33.435Z,1.35
2023-03-31T07:16:01.353Z,1.63
2023-03-31T07:18:34.410Z,1.40
2023-03-31T07:21:05.614Z,1.40
2023-03-31T07:23:35.049Z,1.98
2023-03-31T07:26:03.031Z,1.60
2023-03-31T07:28:31.262Z,1.50
2023-03-31T07:31:00.574Z,1.48
2023-03-31T07:33:28.562Z,1.55
2023-03-31T07:36:10.885Z,1.75
2023-03-31T07:38:41.293Z,1.38
2023-03-31T07:41:11.977Z,1.52
2023-03-31T07:43:39.996Z,1.70
2023-03-31T07:46:15.931Z,1.50
2023-03-31T07:48:44.037Z,1.92
2023-03-31T07:51:11.974Z,1.67
2023-03-31T07:53:39.863Z,1.98
2023-03-31T07:56:08.187Z,2.13
2023-03-31T07:58:36.507Z,1.33
2023-03-31T08:01:05.354Z,2.55
2023-03-31T08:03:37.270Z,2.10
2023-03-31T08:06:05.741Z,3.13
2023-03-31T08:08:33.977Z,2.00
2023-03-31T08:11:01.909Z,2.08
2023-03-31T08:13:29.850Z,2.10
2023-03-31T08:15:57.819Z,2.97
2023-03-31T08:18:26.246Z,3.00
2023-03-31T08:20:55.582Z,3.05
2023-03-31T08:23:23.551Z,2.75
2023-03-31T08:25:51.500Z,3.72
2023-03-31T08:31:05.210Z,2.83
2023-03-31T08:33:33.406Z,2.60
2023-03-31T08:36:06.505Z,2.40
2023-03-31T08:38:34.610Z,3.00
2023-03-31T08:41:03.428Z,3.50
2023-03-31T08:43:34.826Z,2.92
2023-03-31T08:46:04.248Z,1.95
2023-03-31T08:48:37.647Z,1.73
2023-03-31T08:51:14.139Z,2.55
2023-03-31T08:53:48.440Z,3.45
2023-03-31T08:56:19.596Z,2.28
2023-03-31T09:01:56.808Z,2.72
2023-03-31T09:05:09.587Z,1.60
2023-03-31T09:07:51.296Z,1.45
2023-03-31T09:10:30.328Z,1.20
2023-03-31T09:13:06.134Z,2.22
2023-03-31T09:15:40.538Z,2.15
2023-03-31T09:18:19.114Z,1.83
2023-03-31T09:20:52.756Z,1.60
2023-03-31T09:23:29.279Z,2.33
2023-03-31T09:25:59.109Z,2.00
2023-03-31T09:28:32.229Z,3.17
2023-03-31T09:31:00.987Z,3.28
2023-03-31T09:33:33.599Z,2.25
2023-03-31T09:36:02.088Z,2.65
2023-03-31T09:38:31.650Z,2.47
2023-03-31T09:41:01.390Z,3.10
2023-03-31T09:43:31.639Z,2.67
2023-03-31T09:46:09.102Z,3.05
2023-03-31T09:48:39.036Z,2.78
2023-03-31T09:51:11.466Z,3.92
2023-03-31T09:53:45.282Z,3.05
2023-03-31T09:58:43.729Z,2.83
2023-03-31T10:01:13.904Z,3.20
2023-03-31T10:03:50.959Z,2.90
2023-03-31T10:06:19.647Z,3.60
2023-03-31T10:08:55.561Z,1.70
2023-03-31T10:11:24.282Z,3.75
2023-03-31T10:13:59.100Z,2.83
2023-03-31T10:16:31.432Z,2.08
2023-03-31T10:19:14.763Z,2.58
2023-03-31T10:21:47.692Z,2.25
2023-03-31T10:24:20.808Z,2.47
2023-03-31T10:26:50.385Z,2.17
2023-03-31T10:29:25.690Z,1.98
2023-03-31T10:31:54.283Z,2.13
2023-03-31T13:36:34.207Z,1.40
2023-03-31T13:39:49.933Z,1.27
2023-03-31T13:42:58.403Z,0.85
2023-03-31T13:45:49.396Z,1.05
2023-03-31T13:48:31.149Z,1.58
2023-03-31T13:51:27.849Z,2.05
2023-03-31T13:54:13.081Z,0.75
2023-03-31T13:57:14.348Z,1.48
2023-03-31T14:00:13.278Z,1.88
2023-03-31T14:03:29.025Z,1.50
2023-03-31T14:06:10.070Z,0.80
2023-03-31T14:08:57.303Z,1.70
2023-03-31T14:11:27.231Z,1.00
2023-03-31T14:14:06.040Z,1.98
2023-03-31T14:16:40.838Z,2.05
2023-03-31T14:19:43.937Z,1.25
2023-03-31T14:22:20.594Z,2.40
2023-03-31T14:24:56.328Z,1.45
2023-03-31T14:27:50.431Z,0.77
2023-03-31T14:30:33.719Z,1.00
2023-03-31T14:33:21.834Z,1.73
2023-03-31T14:35:58.132Z,1.52
2023-03-31T14:38:33.388Z,1.40
2023-03-31T14:41:04.817Z,1.80
2023-03-31T14:43:35.821Z,1.48
2023-03-31T14:46:41.640Z,1.33
2023-03-31T14:49:44.627Z,1.40
2023-03-31T14:56:39.493Z,1.48
2023-03-31T14:59:18.624Z,1.63
2023-03-31T15:04:58.419Z,1.85
2023-03-31T15:07:27.992Z,1.05
2023-03-31T15:09:56.188Z,1.45
2023-03-31T15:12:24.703Z,1.88
2023-03-31T15:14:56.106Z,1.40
2023-03-31T15:17:29.146Z,1.48
2023-03-31T15:19:58.843Z,1.23
2023-03-31T15:22:28.310Z,1.38
2023-03-31T15:24:56.983Z,1.42
2023-03-31T15:27:37.420Z,1.60
2023-03-31T15:30:09.145Z,1.65
2023-03-31T15:32:41.059Z,2.25
2023-03-31T15:35:22.430Z,1.13
2023-03-31T15:37:53.272Z,0.90
2023-03-31T15:40:24.432Z,0.93
2023-03-31T15:43:06.391Z,1.05
2023-03-31T15:45:53.242Z,1.10
2023-03-31T15:48:28.512Z,0.70
2023-03-31T15:51:02.696Z,0.93
2023-03-31T15:53:33.510Z,1.50
2023-03-31T15:56:02.033Z,1.13
2023-03-31T15:59:00.395Z,1.00
2023-03-31T16:01:35.078Z,1.40
2023-03-31T16:04:10.008Z,1.00
2023-03-31T16:06:45.316Z,1.05
2023-03-31T16:09:17.608Z,1.75
2023-03-31T16:11:49.428Z,1.70
2023-03-31T16:14:31.355Z,1.70
2023-03-31T16:17:03.049Z,0.90
2023-03-31T16:19:40.216Z,1.92
2023-03-31T16:22:09.907Z,1.60
2023-03-31T16:24:37.996Z,1.70
2023-03-31T16:27:09.553Z,1.77
2023-03-31T16:29:39.520Z,1.95
2023-03-31T16:32:09.934Z,1.88
2023-03-31T16:34:53.488Z,2.60
2023-03-31T16:37:21.977Z,1.73
2023-03-31T16:39:50.064Z,1.83
2023-03-31T16:42:18.424Z,2.05
2023-03-31T16:44:52.893Z,1.70
2023-03-31T16:47:35.052Z,2.05
2023-03-31T16:50:11.700Z,1.88
2023-03-31T16:52:40.407Z,1.95
2023-03-31T16:55:24.855Z,2.20
2023-03-31T16:58:04.996Z,2.08
2023-03-31T17:00:37.847Z,2.22
2023-03-31T17:03:11.832Z,1.88
2023-03-31T17:05:43.906Z,2.67
2023-03-31T17:08:17.003Z,2.22
2023-03-31T17:10:54.131Z,2.40
2023-03-31T17:16:47.401Z,2.33
2023-03-31T17:22:35.258Z,2.08
2023-03-31T17:25:09.724Z,2.25
2023-03-31T17:27:37.980Z,2.13
2023-03-31T17:30:10.153Z,2.67
2023-03-31T17:32:43.005Z,2.60
2023-03-31T17:35:13.584Z,2.03
2023-03-31T17:37:44.803Z,2.33
2023-03-31T17:40:15.604Z,2.28
2023-03-31T17:46:01.537Z,1.88
2023-03-31T17:48:41.521Z,3.20
2023-03-31T17:51:47.092Z,2.53
2023-03-31T17:54:24.675Z,2.08
2023-03-31T17:56:52.890Z,2.35
2023-03-31T17:59:21.333Z,2.38
2023-03-31T18:01:50.239Z,1.67
2023-03-31T18:04:18.584Z,1.77
2023-03-31T18:06:48.714Z,1.92
2023-03-31T18:09:18.310Z,2.15
2023-03-31T18:11:47.504Z,1.33
2023-03-31T18:14:15.569Z,1.35
2023-03-31T18:16:43.640Z,1.05
2023-03-31T18:19:11.769Z,1.27
2023-03-31T18:21:39.943Z,1.30
2023-03-31T18:24:09.894Z,1.33
2023-03-31T18:26:42.693Z,1.58
2023-03-31T18:29:10.799Z,1.20
2023-03-31T18:31:39.404Z,1.20
2023-03-31T18:34:07.749Z,1.35
2023-03-31T18:36:37.482Z,1.67
2023-03-31T18:39:05.708Z,1.33
2023-03-31T18:41:34.232Z,1.00
2023-03-31T18:44:04.358Z,1.38
2023-03-31T18:46:32.925Z,1.55
2023-03-31T18:49:01.211Z,1.60
2023-03-31T18:51:29.964Z,1.48
2023-03-31T18:53:59.557Z,1.60
2023-03-31T18:56:29.680Z,1.30
2023-03-31T18:59:00.048Z,1.95
2023-03-31T19:01:47.892Z,1.27
2023-03-31T19:04:16.287Z,1.58
2023-03-31T19:06:44.379Z,1.60
2023-03-31T19:09:15.881Z,0.88
2023-03-31T19:12:08.895Z,1.23
2023-03-31T19:15:57.211Z,1.73
2023-03-31T19:19:13.233Z,1.67
2023-03-31T19:21:46.356Z,1.45
2023-03-31T19:24:33.733Z,0.90
2023-03-31T19:30:05.403Z,2.38
2023-03-31T19:32:37.116Z,1.58
2023-03-31T19:39:27.072Z,1.75
2023-03-31T19:42:11.405Z,2.03
2023-03-31T19:44:49.657Z,1.85
2023-03-31T19:47:18.199Z,1.48
2023-03-31T19:49:46.688Z,1.73
2023-03-31T19:52:17.881Z,1.48
2023-03-31T19:54:48.169Z,1.80
2023-03-31T19:57:43.292Z,2.15
2023-03-31T20:00:18.367Z,2.00
2023-03-31T20:02:49.769Z,1.95
2023-03-31T20:05:47.349Z,1.27
2023-03-31T20:09:07.308Z,1.35
2023-03-31T20:11:42.787Z,2.00
2023-03-31T20:14:17.587Z,1.80
2023-03-31T20:16:49.288Z,1.80
2023-03-31T20:19:18.172Z,2.03
2023-03-31T20:22:07.651Z,1.95
2023-03-31T20:24:40.919Z,2.63
2023-03-31T20:27:54.306Z,2.95
2023-03-31T20:30:22.610Z,1.27
2023-03-31T20:32:53.380Z,2.10
2023-03-31T20:36:06.453Z,1.92
2023-03-31T20:38:40.271Z,1.73
2023-03-31T20:44:50.722Z,1.63
2023-03-31T20:47:40.606Z,1.83
2023-03-31T20:50:09.883Z,1.80
2023-03-31T20:52:42.541Z,1.77
2023-03-31T21:04:24.824Z,2.05
2023-03-31T21:13:40.135Z,1.33
2023-03-31T21:16:46.311Z,1.60
2023-03-31T21:19:30.858Z,2.28
2023-03-31T21:22:53.329Z,1.88
2023-03-31T21:28:02.747Z,2.03
2023-03-31T21:30:32.899Z,2.80
2023-03-31T21:33:13.004Z,2.42
2023-03-31T21:35:56.657Z,2.97
2023-03-31T21:38:38.243Z,3.00
2023-03-31T21:42:10.692Z,2.00
2023-03-31T21:44:47.866Z,1.77
2023-03-31T21:47:16.074Z,1.98
2023-03-31T21:49:44.192Z,1.75
2023-03-31T21:52:17.893Z,2.45
2023-03-31T21:54:48.038Z,3.20
2023-03-31T22:03:33.179Z,1.65
2023-03-31T22:06:02.687Z,2.95
2023-03-31T22:08:32.948Z,1.52
2023-03-31T22:11:01.928Z,2.55
2023-03-31T22:13:31.161Z,3.30
2023-03-31T22:16:02.131Z,3.47
2023-03-31T22:18:31.259Z,2.50
2023-03-31T22:21:01.125Z,2.47
2023-03-31T22:23:29.388Z,2.17
2023-03-31T22:25:59.675Z,2.53
2023-03-31T22:28:36.000Z,2.80
2023-03-31T22:31:04.149Z,2.20
2023-03-31T22:33:32.275Z,2.60
2023-03-31T22:36:00.621Z,1.90
2023-03-31T22:38:29.032Z,2.28
2023-03-31T22:40:58.603Z,2.10
2023-03-31T22:43:27.357Z,1.95
2023-03-31T22:45:55.403Z,2.08
2023-03-31T22:48:23.623Z,1.25
2023-03-31T22:50:51.673Z,1.40
2023-03-31T22:53:19.761Z,0.93
2023-03-31T22:55:53.730Z,2.35
2023-03-31T22:58:24.267Z,0.38
2023-03-31T23:01:01.790Z,0.88
2023-03-31T23:03:30.324Z,0.95
2023-03-31T23:05:58.474Z,0.80
2023-03-31T23:08:26.579Z,0.80
2023-03-31T23:10:58.852Z,0.85
2023-03-31T23:13:29.101Z,1.25
2023-03-31T23:15:57.237Z,0.88
2023-03-31T23:18:25.853Z,0.65
2023-03-31T23:20:53.941Z,1.65
2023-03-31T23:23:22.075Z,1.17
2023-03-31T23:25:50.253Z,0.90
2023-03-31T23:28:18.622Z,0.98
2023-03-31T23:30:56.759Z,0.60
2023-03-31T23:33:25.724Z,0.80
2023-03-31T23:35:54.147Z,0.45
2023-03-31T23:38:22.563Z,0.90
2023-03-31T23:40:50.821Z,0.40
2023-03-31T23:43:18.877Z,0.40
2023-03-31T23:45:47.037Z,0.45
2023-03-31T23:48:17.037Z,0.70
2023-03-31T23:50:45.468Z,0.45
2023-03-31T23:53:14.113Z,1.10
2023-03-31T23:55:42.315Z,0.30
2023-03-31T23:58:10.563Z,0.95
